sensor_id;sensor_type;location;lat;lon;timestamp;temperature;humidity
54272;DHT22;40184;53.362;5.216;2022-12-07T00:00:02;7.70;99.90
54272;DHT22;40184;53.362;5.216;2022-12-07T00:02:28;7.70;99.90
54272;DHT22;40184;53.362;5.216;2022-12-07T00:04:54;7.50;99.90
54272;DHT22;40184;53.362;5.216;2022-12-07T00:07:20;6.90;99.90
54272;DHT22;40184;53.362;5.216;2022-12-07T00:09:45;6.90;99.90
54272;DHT22;40184;53.362;5.216;2022-12-07T00:12:11;6.80;99.90
54272;DHT22;40184;53.362;5.216;2022-12-07T00:14:36;6.90;99.90
54272;DHT22;40184;53.362;5.216;2022-12-07T00:17:02;6.70;99.90
54272;DHT22;40184;53.362;5.216;2022-12-07T00:19:28;7.10;99.90
54272;DHT22;40184;53.362;5.216;2022-12-07T00:21:53;7.40;99.90
54272;DHT22;40184;53.362;5.216;2022-12-07T00:24:19;6.80;99.90
54272;DHT22;40184;53.362;5.216;2022-12-07T00:26:45;6.90;99.90
54272;DHT22;40184;53.362;5.216;2022-12-07T00:29:19;6.80;99.90
54272;DHT22;40184;53.362;5.216;2022-12-07T00:31:45;7.40;99.90
54272;DHT22;40184;53.362;5.216;2022-12-07T00:34:21;6.70;99.90
54272;DHT22;40184;53.362;5.216;2022-12-07T00:36:48;6.70;99.90
54272;DHT22;40184;53.362;5.216;2022-12-07T00:39:14;6.60;99.90
54272;DHT22;40184;53.362;5.216;2022-12-07T00:41:40;6.80;99.90
54272;DHT22;40184;53.362;5.216;2022-12-07T00:44:06;6.60;99.90
54272;DHT22;40184;53.362;5.216;2022-12-07T00:46:32;7.10;99.90
54272;DHT22;40184;53.362;5.216;2022-12-07T00:48:58;7.10;99.90
54272;DHT22;40184;53.362;5.216;2022-12-07T00:51:24;7.10;99.90
54272;DHT22;40184;53.362;5.216;2022-12-07T00:53:51;7.30;99.90
54272;DHT22;40184;53.362;5.216;2022-12-07T00:56:18;6.90;99.90
54272;DHT22;40184;53.362;5.216;2022-12-07T00:58:48;7.30;99.90
54272;DHT22;40184;53.362;5.216;2022-12-07T01:01:14;7.00;99.90
54272;DHT22;40184;53.362;5.216;2022-12-07T01:03:40;7.00;99.90
54272;DHT22;40184;53.362;5.216;2022-12-07T01:06:06;6.90;99.90
54272;DHT22;40184;53.362;5.216;2022-12-07T01:08:32;6.40;99.90
54272;DHT22;40184;53.362;5.216;2022-12-07T01:11:03;6.80;99.90
54272;DHT22;40184;53.362;5.216;2022-12-07T01:13:29;6.50;99.90
54272;DHT22;40184;53.362;5.216;2022-12-07T01:16:00;6.90;99.90
54272;DHT22;40184;53.362;5.216;2022-12-07T01:18:28;6.70;99.90
54272;DHT22;40184;53.362;5.216;2022-12-07T01:21:03;7.00;99.90
54272;DHT22;40184;53.362;5.216;2022-12-07T01:23:30;6.40;99.90
54272;DHT22;40184;53.362;5.216;2022-12-07T01:26:01;6.50;99.90
54272;DHT22;40184;53.362;5.216;2022-12-07T01:28:27;6.80;99.90
54272;DHT22;40184;53.362;5.216;2022-12-07T01:31:02;6.80;99.90
54272;DHT22;40184;53.362;5.216;2022-12-07T01:33:31;7.20;99.90
54272;DHT22;40184;53.362;5.216;2022-12-07T01:38:43;7.00;99.90
54272;DHT22;40184;53.362;5.216;2022-12-07T01:41:10;7.00;99.90
54272;DHT22;40184;53.362;5.216;2022-12-07T01:43:36;7.00;99.90
54272;DHT22;40184;53.362;5.216;2022-12-07T01:46:03;6.90;99.90
54272;DHT22;40184;53.362;5.216;2022-12-07T01:48:36;6.70;99.90
54272;DHT22;40184;53.362;5.216;2022-12-07T01:51:08;7.10;99.90
54272;DHT22;40184;53.362;5.216;2022-12-07T01:53:36;6.90;99.90
54272;DHT22;40184;53.362;5.216;2022-12-07T01:56:03;7.30;99.90
54272;DHT22;40184;53.362;5.216;2022-12-07T01:58:29;7.10;99.90
54272;DHT22;40184;53.362;5.216;2022-12-07T02:00:54;7.50;99.90
54272;DHT22;40184;53.362;5.216;2022-12-07T02:03:47;6.80;99.90
54272;DHT22;40184;53.362;5.216;2022-12-07T02:06:15;7.40;99.90
54272;DHT22;40184;53.362;5.216;2022-12-07T02:08:43;7.20;99.90
54272;DHT22;40184;53.362;5.216;2022-12-07T02:11:09;7.30;99.90
54272;DHT22;40184;53.362;5.216;2022-12-07T02:13:38;6.80;99.90
54272;DHT22;40184;53.362;5.216;2022-12-07T02:22:08;7.20;99.90
54272;DHT22;40184;53.362;5.216;2022-12-07T02:27:47;6.80;99.90
54272;DHT22;40184;53.362;5.216;2022-12-07T02:30:17;6.80;99.90
54272;DHT22;40184;53.362;5.216;2022-12-07T02:33:00;7.00;99.90
54272;DHT22;40184;53.362;5.216;2022-12-07T02:35:42;7.50;99.90
54272;DHT22;40184;53.362;5.216;2022-12-07T02:38:18;7.50;99.90
54272;DHT22;40184;53.362;5.216;2022-12-07T02:43:53;7.30;99.90
54272;DHT22;40184;53.362;5.216;2022-12-07T02:46:23;6.70;99.90
54272;DHT22;40184;53.362;5.216;2022-12-07T02:48:52;6.90;99.90
54272;DHT22;40184;53.362;5.216;2022-12-07T02:51:42;7.10;99.90
54272;DHT22;40184;53.362;5.216;2022-12-07T02:54:14;7.20;99.90
54272;DHT22;40184;53.362;5.216;2022-12-07T03:04:55;7.30;99.90
54272;DHT22;40184;53.362;5.216;2022-12-07T03:07:27;7.20;99.90
54272;DHT22;40184;53.362;5.216;2022-12-07T03:13:07;6.60;99.90
54272;DHT22;40184;53.362;5.216;2022-12-07T03:15:54;6.80;99.90
54272;DHT22;40184;53.362;5.216;2022-12-07T03:18:23;6.80;99.90
54272;DHT22;40184;53.362;5.216;2022-12-07T03:20:52;6.40;99.90
54272;DHT22;40184;53.362;5.216;2022-12-07T03:23:19;7.00;99.90
54272;DHT22;40184;53.362;5.216;2022-12-07T03:25:49;7.20;99.90
54272;DHT22;40184;53.362;5.216;2022-12-07T03:28:21;7.20;99.90
54272;DHT22;40184;53.362;5.216;2022-12-07T03:30:57;6.70;99.90
54272;DHT22;40184;53.362;5.216;2022-12-07T03:33:33;7.20;99.90
54272;DHT22;40184;53.362;5.216;2022-12-07T03:36:05;6.50;99.90
54272;DHT22;40184;53.362;5.216;2022-12-07T03:38:53;7.10;99.90
54272;DHT22;40184;53.362;5.216;2022-12-07T03:41:30;7.10;99.90
54272;DHT22;40184;53.362;5.216;2022-12-07T03:43:57;7.00;99.90
54272;DHT22;40184;53.362;5.216;2022-12-07T03:49:11;7.00;99.90
54272;DHT22;40184;53.362;5.216;2022-12-07T03:55:00;6.90;99.90
54272;DHT22;40184;53.362;5.216;2022-12-07T03:57:29;6.70;99.90
54272;DHT22;40184;53.362;5.216;2022-12-07T03:59:57;6.60;99.90
54272;DHT22;40184;53.362;5.216;2022-12-07T04:02:25;6.30;99.90
54272;DHT22;40184;53.362;5.216;2022-12-07T04:04:52;6.30;99.90
54272;DHT22;40184;53.362;5.216;2022-12-07T04:07:18;6.30;99.90
54272;DHT22;40184;53.362;5.216;2022-12-07T04:09:44;6.30;99.90
54272;DHT22;40184;53.362;5.216;2022-12-07T04:12:09;6.30;99.90
54272;DHT22;40184;53.362;5.216;2022-12-07T04:14:35;6.20;99.90
54272;DHT22;40184;53.362;5.216;2022-12-07T04:17:01;6.80;99.90
54272;DHT22;40184;53.362;5.216;2022-12-07T04:19:30;6.10;99.90
54272;DHT22;40184;53.362;5.216;2022-12-07T04:21:57;6.40;99.90
54272;DHT22;40184;53.362;5.216;2022-12-07T04:24:23;6.40;99.90
54272;DHT22;40184;53.362;5.216;2022-12-07T04:26:49;6.70;99.90
54272;DHT22;40184;53.362;5.216;2022-12-07T04:29:16;6.10;99.90
54272;DHT22;40184;53.362;5.216;2022-12-07T04:31:42;6.50;99.90
54272;DHT22;40184;53.362;5.216;2022-12-07T04:34:08;6.80;99.90
54272;DHT22;40184;53.362;5.216;2022-12-07T04:36:34;6.40;99.90
54272;DHT22;40184;53.362;5.216;2022-12-07T04:39:01;6.50;99.90
54272;DHT22;40184;53.362;5.216;2022-12-07T04:41:27;6.40;99.90
54272;DHT22;40184;53.362;5.216;2022-12-07T04:43:57;6.90;99.90
54272;DHT22;40184;53.362;5.216;2022-12-07T04:46:24;6.90;99.90
54272;DHT22;40184;53.362;5.216;2022-12-07T04:48:51;6.90;99.90
54272;DHT22;40184;53.362;5.216;2022-12-07T04:51:21;6.90;99.90
54272;DHT22;40184;53.362;5.216;2022-12-07T04:53:48;6.70;99.90
54272;DHT22;40184;53.362;5.216;2022-12-07T04:56:14;6.90;99.90
54272;DHT22;40184;53.362;5.216;2022-12-07T04:58:41;6.40;99.90
54272;DHT22;40184;53.362;5.216;2022-12-07T05:01:07;6.70;99.90
54272;DHT22;40184;53.362;5.216;2022-12-07T05:03:33;6.60;99.90
54272;DHT22;40184;53.362;5.216;2022-12-07T05:05:58;6.40;99.90
54272;DHT22;40184;53.362;5.216;2022-12-07T05:08:24;6.80;99.90
54272;DHT22;40184;53.362;5.216;2022-12-07T05:10:50;6.50;99.90
54272;DHT22;40184;53.362;5.216;2022-12-07T05:13:16;6.40;99.90
54272;DHT22;40184;53.362;5.216;2022-12-07T05:15:41;6.70;99.90
54272;DHT22;40184;53.362;5.216;2022-12-07T05:18:11;6.40;99.90
54272;DHT22;40184;53.362;5.216;2022-12-07T05:20:39;6.60;99.90
54272;DHT22;40184;53.362;5.216;2022-12-07T05:23:05;7.00;99.90
54272;DHT22;40184;53.362;5.216;2022-12-07T05:25:30;6.20;99.90
54272;DHT22;40184;53.362;5.216;2022-12-07T05:27:56;6.50;99.90
54272;DHT22;40184;53.362;5.216;2022-12-07T05:30:23;6.20;99.90
54272;DHT22;40184;53.362;5.216;2022-12-07T05:32:49;6.10;99.90
54272;DHT22;40184;53.362;5.216;2022-12-07T05:35:15;6.10;99.90
54272;DHT22;40184;53.362;5.216;2022-12-07T05:37:40;6.10;99.90
54272;DHT22;40184;53.362;5.216;2022-12-07T05:40:07;6.40;99.90
54272;DHT22;40184;53.362;5.216;2022-12-07T05:42:32;5.70;99.90
54272;DHT22;40184;53.362;5.216;2022-12-07T05:44:58;6.00;99.90
54272;DHT22;40184;53.362;5.216;2022-12-07T05:47:24;6.20;99.90
54272;DHT22;40184;53.362;5.216;2022-12-07T05:49:50;6.40;99.90
54272;DHT22;40184;53.362;5.216;2022-12-07T05:52:15;6.40;99.90
54272;DHT22;40184;53.362;5.216;2022-12-07T05:54:41;5.80;99.90
54272;DHT22;40184;53.362;5.216;2022-12-07T05:57:07;6.20;99.90
54272;DHT22;40184;53.362;5.216;2022-12-07T05:59:32;6.00;99.90
54272;DHT22;40184;53.362;5.216;2022-12-07T06:02:07;5.90;99.90
54272;DHT22;40184;53.362;5.216;2022-12-07T06:04:36;5.60;99.90
54272;DHT22;40184;53.362;5.216;2022-12-07T06:07:03;5.90;99.90
54272;DHT22;40184;53.362;5.216;2022-12-07T06:09:29;5.80;99.90
54272;DHT22;40184;53.362;5.216;2022-12-07T06:11:56;6.10;99.90
54272;DHT22;40184;53.362;5.216;2022-12-07T06:14:40;6.00;99.90
54272;DHT22;40184;53.362;5.216;2022-12-07T06:17:06;5.90;99.90
54272;DHT22;40184;53.362;5.216;2022-12-07T06:19:32;5.50;99.90
54272;DHT22;40184;53.362;5.216;2022-12-07T06:21:58;5.70;99.90
54272;DHT22;40184;53.362;5.216;2022-12-07T06:24:24;5.90;99.90
54272;DHT22;40184;53.362;5.216;2022-12-07T06:26:50;6.10;99.90
54272;DHT22;40184;53.362;5.216;2022-12-07T06:29:16;5.90;99.90
54272;DHT22;40184;53.362;5.216;2022-12-07T06:31:42;6.20;99.90
54272;DHT22;40184;53.362;5.216;2022-12-07T06:34:19;5.80;99.90
54272;DHT22;40184;53.362;5.216;2022-12-07T06:36:46;6.40;99.90
54272;DHT22;40184;53.362;5.216;2022-12-07T06:39:17;6.10;99.90
54272;DHT22;40184;53.362;5.216;2022-12-07T06:41:43;5.90;99.90
54272;DHT22;40184;53.362;5.216;2022-12-07T06:44:09;5.80;99.90
54272;DHT22;40184;53.362;5.216;2022-12-07T06:46:35;5.70;99.90
54272;DHT22;40184;53.362;5.216;2022-12-07T06:49:02;6.10;99.90
54272;DHT22;40184;53.362;5.216;2022-12-07T06:51:28;5.70;99.90
54272;DHT22;40184;53.362;5.216;2022-12-07T06:53:54;5.90;99.90
54272;DHT22;40184;53.362;5.216;2022-12-07T06:56:20;5.70;99.90
54272;DHT22;40184;53.362;5.216;2022-12-07T06:58:46;6.30;99.90
54272;DHT22;40184;53.362;5.216;2022-12-07T07:01:16;5.90;99.90
54272;DHT22;40184;53.362;5.216;2022-12-07T07:03:44;6.40;99.90
54272;DHT22;40184;53.362;5.216;2022-12-07T07:06:10;5.90;99.90
54272;DHT22;40184;53.362;5.216;2022-12-07T07:08:37;6.50;99.90
54272;DHT22;40184;53.362;5.216;2022-12-07T07:11:04;6.60;99.90
54272;DHT22;40184;53.362;5.216;2022-12-07T07:13:30;6.30;99.90
54272;DHT22;40184;53.362;5.216;2022-12-07T07:15:56;5.90;99.90
54272;DHT22;40184;53.362;5.216;2022-12-07T07:18:22;6.20;99.90
54272;DHT22;40184;53.362;5.216;2022-12-07T07:20:48;5.90;99.90
54272;DHT22;40184;53.362;5.216;2022-12-07T07:23:13;6.40;99.90
54272;DHT22;40184;53.362;5.216;2022-12-07T07:25:39;5.80;99.90
54272;DHT22;40184;53.362;5.216;2022-12-07T07:28:05;6.00;99.90
54272;DHT22;40184;53.362;5.216;2022-12-07T07:30:31;5.80;99.90
54272;DHT22;40184;53.362;5.216;2022-12-07T07:32:57;6.20;99.90
54272;DHT22;40184;53.362;5.216;2022-12-07T07:35:24;6.10;99.90
54272;DHT22;40184;53.362;5.216;2022-12-07T07:37:50;5.90;99.90
54272;DHT22;40184;53.362;5.216;2022-12-07T07:40:16;5.80;99.90
54272;DHT22;40184;53.362;5.216;2022-12-07T07:42:41;6.10;99.90
54272;DHT22;40184;53.362;5.216;2022-12-07T07:45:08;5.80;99.90
54272;DHT22;40184;53.362;5.216;2022-12-07T07:47:33;5.80;99.90
54272;DHT22;40184;53.362;5.216;2022-12-07T07:49:59;5.80;99.90
54272;DHT22;40184;53.362;5.216;2022-12-07T07:52:25;5.90;99.90
54272;DHT22;40184;53.362;5.216;2022-12-07T07:54:51;5.70;99.90
54272;DHT22;40184;53.362;5.216;2022-12-07T07:57:17;6.00;99.90
54272;DHT22;40184;53.362;5.216;2022-12-07T07:59:42;6.00;99.90
54272;DHT22;40184;53.362;5.216;2022-12-07T08:02:16;5.80;99.90
54272;DHT22;40184;53.362;5.216;2022-12-07T08:04:42;6.00;99.90
54272;DHT22;40184;53.362;5.216;2022-12-07T08:07:08;6.20;99.90
54272;DHT22;40184;53.362;5.216;2022-12-07T08:09:33;6.10;99.90
54272;DHT22;40184;53.362;5.216;2022-12-07T08:11:59;5.90;99.90
54272;DHT22;40184;53.362;5.216;2022-12-07T08:14:25;6.00;99.90
54272;DHT22;40184;53.362;5.216;2022-12-07T08:16:52;6.00;99.90
54272;DHT22;40184;53.362;5.216;2022-12-07T08:19:18;6.20;99.90
54272;DHT22;40184;53.362;5.216;2022-12-07T08:21:44;6.10;99.90
54272;DHT22;40184;53.362;5.216;2022-12-07T08:24:09;5.80;99.90
54272;DHT22;40184;53.362;5.216;2022-12-07T08:26:35;6.40;99.90
54272;DHT22;40184;53.362;5.216;2022-12-07T08:29:01;6.10;99.90
54272;DHT22;40184;53.362;5.216;2022-12-07T08:31:27;6.70;99.90
54272;DHT22;40184;53.362;5.216;2022-12-07T08:33:53;6.40;99.90
54272;DHT22;40184;53.362;5.216;2022-12-07T08:36:19;6.30;99.90
54272;DHT22;40184;53.362;5.216;2022-12-07T08:38:45;6.90;99.90
54272;DHT22;40184;53.362;5.216;2022-12-07T08:41:10;6.70;99.90
54272;DHT22;40184;53.362;5.216;2022-12-07T08:43:36;6.90;99.90
54272;DHT22;40184;53.362;5.216;2022-12-07T08:48:32;6.70;99.90
54272;DHT22;40184;53.362;5.216;2022-12-07T08:50:58;6.50;99.90
54272;DHT22;40184;53.362;5.216;2022-12-07T08:53:24;6.50;99.90
54272;DHT22;40184;53.362;5.216;2022-12-07T08:55:50;6.30;99.90
54272;DHT22;40184;53.362;5.216;2022-12-07T08:58:16;6.30;99.90
54272;DHT22;40184;53.362;5.216;2022-12-07T09:00:41;6.50;99.90
54272;DHT22;40184;53.362;5.216;2022-12-07T09:03:07;6.90;99.90
54272;DHT22;40184;53.362;5.216;2022-12-07T09:05:33;6.80;99.90
54272;DHT22;40184;53.362;5.216;2022-12-07T09:08:00;6.50;99.90
54272;DHT22;40184;53.362;5.216;2022-12-07T09:10:27;7.20;99.90
54272;DHT22;40184;53.362;5.216;2022-12-07T09:12:53;6.80;99.90
54272;DHT22;40184;53.362;5.216;2022-12-07T09:15:19;7.00;99.90
54272;DHT22;40184;53.362;5.216;2022-12-07T09:17:44;7.00;99.90
54272;DHT22;40184;53.362;5.216;2022-12-07T09:20:10;7.30;99.90
54272;DHT22;40184;53.362;5.216;2022-12-07T09:22:37;7.10;99.90
54272;DHT22;40184;53.362;5.216;2022-12-07T09:25:04;6.50;99.90
54272;DHT22;40184;53.362;5.216;2022-12-07T09:27:30;6.40;99.90
54272;DHT22;40184;53.362;5.216;2022-12-07T09:29:56;6.90;99.90
54272;DHT22;40184;53.362;5.216;2022-12-07T09:32:22;6.60;99.90
54272;DHT22;40184;53.362;5.216;2022-12-07T09:34:47;6.60;99.90
54272;DHT22;40184;53.362;5.216;2022-12-07T09:37:13;7.00;99.90
54272;DHT22;40184;53.362;5.216;2022-12-07T09:39:39;7.20;99.90
54272;DHT22;40184;53.362;5.216;2022-12-07T09:42:06;7.00;99.90
54272;DHT22;40184;53.362;5.216;2022-12-07T09:44:33;7.30;99.90
54272;DHT22;40184;53.362;5.216;2022-12-07T09:46:59;7.00;99.90
54272;DHT22;40184;53.362;5.216;2022-12-07T09:49:28;7.60;99.90
54272;DHT22;40184;53.362;5.216;2022-12-07T09:52:16;7.00;99.90
54272;DHT22;40184;53.362;5.216;2022-12-07T09:54:47;6.80;99.90
54272;DHT22;40184;53.362;5.216;2022-12-07T09:57:13;7.00;99.90
54272;DHT22;40184;53.362;5.216;2022-12-07T09:59:39;7.10;99.90
54272;DHT22;40184;53.362;5.216;2022-12-07T10:04:59;7.30;99.90
54272;DHT22;40184;53.362;5.216;2022-12-07T10:07:24;6.70;99.90
54272;DHT22;40184;53.362;5.216;2022-12-07T10:09:50;7.00;99.90
54272;DHT22;40184;53.362;5.216;2022-12-07T10:12:16;7.20;99.90
54272;DHT22;40184;53.362;5.216;2022-12-07T10:14:55;7.20;99.90
54272;DHT22;40184;53.362;5.216;2022-12-07T10:17:37;7.50;99.90
54272;DHT22;40184;53.362;5.216;2022-12-07T10:20:18;8.00;99.90
54272;DHT22;40184;53.362;5.216;2022-12-07T10:23:00;8.50;99.90
54272;DHT22;40184;53.362;5.216;2022-12-07T10:25:30;8.40;99.90
54272;DHT22;40184;53.362;5.216;2022-12-07T10:30:33;8.40;99.90
54272;DHT22;40184;53.362;5.216;2022-12-07T10:32:59;8.40;99.90
54272;DHT22;40184;53.362;5.216;2022-12-07T10:35:29;8.10;99.90
54272;DHT22;40184;53.362;5.216;2022-12-07T10:37:57;8.30;99.90
54272;DHT22;40184;53.362;5.216;2022-12-07T10:40:28;8.30;99.90
54272;DHT22;40184;53.362;5.216;2022-12-07T10:48:32;8.00;99.90
54272;DHT22;40184;53.362;5.216;2022-12-07T10:56:30;7.50;99.90
54272;DHT22;40184;53.362;5.216;2022-12-07T11:02:15;7.30;99.90
54272;DHT22;40184;53.362;5.216;2022-12-07T11:07:19;7.30;99.90
54272;DHT22;40184;53.362;5.216;2022-12-07T11:15:24;7.50;99.90
54272;DHT22;40184;53.362;5.216;2022-12-07T11:18:14;7.40;99.90
54272;DHT22;40184;53.362;5.216;2022-12-07T11:20:46;7.20;99.90
54272;DHT22;40184;53.362;5.216;2022-12-07T11:26:13;7.80;99.90
54272;DHT22;40184;53.362;5.216;2022-12-07T11:29:33;7.40;99.90
54272;DHT22;40184;53.362;5.216;2022-12-07T11:37:02;7.60;99.90
54272;DHT22;40184;53.362;5.216;2022-12-07T11:39:36;7.70;99.90
54272;DHT22;40184;53.362;5.216;2022-12-07T11:42:09;7.60;99.90
54272;DHT22;40184;53.362;5.216;2022-12-07T11:52:20;7.70;99.90
54272;DHT22;40184;53.362;5.216;2022-12-07T11:54:50;7.80;99.90
54272;DHT22;40184;53.362;5.216;2022-12-07T11:57:24;7.40;99.90
54272;DHT22;40184;53.362;5.216;2022-12-07T11:59:56;7.70;99.90
54272;DHT22;40184;53.362;5.216;2022-12-07T12:02:32;7.60;99.90
54272;DHT22;40184;53.362;5.216;2022-12-07T12:05:19;7.90;99.90
54272;DHT22;40184;53.362;5.216;2022-12-07T12:07:59;7.90;99.90
54272;DHT22;40184;53.362;5.216;2022-12-07T12:16:32;7.90;99.90
54272;DHT22;40184;53.362;5.216;2022-12-07T12:22:01;8.00;99.90
54272;DHT22;40184;53.362;5.216;2022-12-07T12:24:31;8.00;99.90
54272;DHT22;40184;53.362;5.216;2022-12-07T12:27:30;7.90;99.90
54272;DHT22;40184;53.362;5.216;2022-12-07T12:29:59;7.90;99.90
54272;DHT22;40184;53.362;5.216;2022-12-07T12:32:40;7.80;99.90
54272;DHT22;40184;53.362;5.216;2022-12-07T12:35:31;7.80;99.90
54272;DHT22;40184;53.362;5.216;2022-12-07T12:40:59;7.80;99.90
54272;DHT22;40184;53.362;5.216;2022-12-07T12:43:48;7.80;99.90
54272;DHT22;40184;53.362;5.216;2022-12-07T12:51:58;6.90;99.90
54272;DHT22;40184;53.362;5.216;2022-12-07T12:54:32;7.30;99.90
54272;DHT22;40184;53.362;5.216;2022-12-07T13:23:35;6.70;99.90
54272;DHT22;40184;53.362;5.216;2022-12-07T13:26:16;6.80;99.90
54272;DHT22;40184;53.362;5.216;2022-12-07T13:28:45;6.60;99.90
54272;DHT22;40184;53.362;5.216;2022-12-07T13:31:38;6.80;99.90
54272;DHT22;40184;53.362;5.216;2022-12-07T13:34:28;6.70;99.90
54272;DHT22;40184;53.362;5.216;2022-12-07T13:36:51;6.60;99.90
54272;DHT22;40184;53.362;5.216;2022-12-07T13:39:23;6.70;99.90
54272;DHT22;40184;53.362;5.216;2022-12-07T13:41:54;6.70;99.90
54272;DHT22;40184;53.362;5.216;2022-12-07T13:44:22;6.80;99.90
54272;DHT22;40184;53.362;5.216;2022-12-07T13:49:32;6.60;99.90
54272;DHT22;40184;53.362;5.216;2022-12-07T13:57:12;6.70;99.90
54272;DHT22;40184;53.362;5.216;2022-12-07T13:59:38;7.20;99.90
54272;DHT22;40184;53.362;5.216;2022-12-07T14:04:51;7.40;99.90
54272;DHT22;40184;53.362;5.216;2022-12-07T14:07:22;6.80;99.90
54272;DHT22;40184;53.362;5.216;2022-12-07T14:09:59;7.30;99.90
54272;DHT22;40184;53.362;5.216;2022-12-07T14:12:26;6.90;99.90
54272;DHT22;40184;53.362;5.216;2022-12-07T14:14:53;6.90;99.90
54272;DHT22;40184;53.362;5.216;2022-12-07T14:17:24;7.00;99.90
54272;DHT22;40184;53.362;5.216;2022-12-07T14:19:58;6.90;99.90
54272;DHT22;40184;53.362;5.216;2022-12-07T14:22:34;7.30;99.90
54272;DHT22;40184;53.362;5.216;2022-12-07T14:25:23;7.30;99.90
54272;DHT22;40184;53.362;5.216;2022-12-07T14:28:00;7.10;99.90
54272;DHT22;40184;53.362;5.216;2022-12-07T14:30:30;7.10;99.90
54272;DHT22;40184;53.362;5.216;2022-12-07T14:33:00;6.60;99.90
54272;DHT22;40184;53.362;5.216;2022-12-07T14:35:26;6.70;99.90
54272;DHT22;40184;53.362;5.216;2022-12-07T14:37:52;6.40;99.90
54272;DHT22;40184;53.362;5.216;2022-12-07T14:40:21;6.30;99.90
54272;DHT22;40184;53.362;5.216;2022-12-07T14:42:52;6.20;99.90
54272;DHT22;40184;53.362;5.216;2022-12-07T14:45:22;6.30;99.90
54272;DHT22;40184;53.362;5.216;2022-12-07T14:47:48;6.40;99.90
54272;DHT22;40184;53.362;5.216;2022-12-07T14:50:17;6.50;99.90
54272;DHT22;40184;53.362;5.216;2022-12-07T14:52:49;6.20;99.90
54272;DHT22;40184;53.362;5.216;2022-12-07T14:57:48;6.70;99.90
54272;DHT22;40184;53.362;5.216;2022-12-07T15:00:15;6.10;99.90
54272;DHT22;40184;53.362;5.216;2022-12-07T15:02:43;6.60;99.90
54272;DHT22;40184;53.362;5.216;2022-12-07T15:05:08;6.60;99.90
54272;DHT22;40184;53.362;5.216;2022-12-07T15:07:34;6.10;99.90
54272;DHT22;40184;53.362;5.216;2022-12-07T15:10:00;6.20;99.90
54272;DHT22;40184;53.362;5.216;2022-12-07T15:12:25;6.20;99.90
54272;DHT22;40184;53.362;5.216;2022-12-07T15:14:51;6.10;99.90
54272;DHT22;40184;53.362;5.216;2022-12-07T15:17:17;6.30;99.90
54272;DHT22;40184;53.362;5.216;2022-12-07T15:19:42;6.20;99.90
54272;DHT22;40184;53.362;5.216;2022-12-07T15:22:08;6.40;99.90
54272;DHT22;40184;53.362;5.216;2022-12-07T15:24:36;6.30;99.90
54272;DHT22;40184;53.362;5.216;2022-12-07T15:27:03;6.30;99.90
54272;DHT22;40184;53.362;5.216;2022-12-07T15:29:28;6.50;99.90
54272;DHT22;40184;53.362;5.216;2022-12-07T15:31:55;6.00;99.90
54272;DHT22;40184;53.362;5.216;2022-12-07T15:34:21;5.80;99.90
54272;DHT22;40184;53.362;5.216;2022-12-07T15:36:46;5.70;99.90
54272;DHT22;40184;53.362;5.216;2022-12-07T15:39:12;5.90;99.90
54272;DHT22;40184;53.362;5.216;2022-12-07T15:41:38;5.80;99.90
54272;DHT22;40184;53.362;5.216;2022-12-07T15:44:04;6.10;99.90
54272;DHT22;40184;53.362;5.216;2022-12-07T15:46:48;6.10;99.90
54272;DHT22;40184;53.362;5.216;2022-12-07T15:49:18;5.60;99.90
54272;DHT22;40184;53.362;5.216;2022-12-07T15:51:44;5.70;99.90
54272;DHT22;40184;53.362;5.216;2022-12-07T15:54:36;6.20;99.90
54272;DHT22;40184;53.362;5.216;2022-12-07T15:57:02;5.60;99.90
54272;DHT22;40184;53.362;5.216;2022-12-07T15:59:29;5.60;99.90
54272;DHT22;40184;53.362;5.216;2022-12-07T16:01:55;6.10;99.90
54272;DHT22;40184;53.362;5.216;2022-12-07T16:04:21;6.30;99.90
54272;DHT22;40184;53.362;5.216;2022-12-07T16:06:46;6.00;99.90
54272;DHT22;40184;53.362;5.216;2022-12-07T16:09:12;6.00;99.90
54272;DHT22;40184;53.362;5.216;2022-12-07T16:11:38;6.00;99.90
54272;DHT22;40184;53.362;5.216;2022-12-07T16:14:03;6.10;99.90
54272;DHT22;40184;53.362;5.216;2022-12-07T16:16:30;6.10;99.90
54272;DHT22;40184;53.362;5.216;2022-12-07T16:18:57;6.40;99.90
54272;DHT22;40184;53.362;5.216;2022-12-07T16:21:23;6.00;99.90
54272;DHT22;40184;53.362;5.216;2022-12-07T16:23:48;6.20;99.90
54272;DHT22;40184;53.362;5.216;2022-12-07T16:26:19;6.50;99.90
54272;DHT22;40184;53.362;5.216;2022-12-07T16:28:47;6.50;99.90
54272;DHT22;40184;53.362;5.216;2022-12-07T16:31:15;6.70;99.90
54272;DHT22;40184;53.362;5.216;2022-12-07T16:33:42;6.00;99.90
54272;DHT22;40184;53.362;5.216;2022-12-07T16:36:10;6.20;99.90
54272;DHT22;40184;53.362;5.216;2022-12-07T16:38:37;6.00;99.90
54272;DHT22;40184;53.362;5.216;2022-12-07T16:41:04;6.10;99.90
54272;DHT22;40184;53.362;5.216;2022-12-07T16:43:30;5.90;99.90
54272;DHT22;40184;53.362;5.216;2022-12-07T16:45:55;5.80;99.90
54272;DHT22;40184;53.362;5.216;2022-12-07T16:48:21;6.10;99.90
54272;DHT22;40184;53.362;5.216;2022-12-07T16:50:47;6.00;99.90
54272;DHT22;40184;53.362;5.216;2022-12-07T16:53:13;5.80;99.90
54272;DHT22;40184;53.362;5.216;2022-12-07T16:55:43;5.50;99.90
54272;DHT22;40184;53.362;5.216;2022-12-07T16:58:11;5.60;99.90
54272;DHT22;40184;53.362;5.216;2022-12-07T17:00:37;5.70;99.90
54272;DHT22;40184;53.362;5.216;2022-12-07T17:03:03;6.10;99.90
54272;DHT22;40184;53.362;5.216;2022-12-07T17:05:29;5.80;99.90
54272;DHT22;40184;53.362;5.216;2022-12-07T17:07:56;5.90;99.90
54272;DHT22;40184;53.362;5.216;2022-12-07T17:10:23;5.70;99.90
54272;DHT22;40184;53.362;5.216;2022-12-07T17:12:50;6.20;99.90
54272;DHT22;40184;53.362;5.216;2022-12-07T17:15:17;5.60;99.90
54272;DHT22;40184;53.362;5.216;2022-12-07T17:17:55;5.80;99.90
54272;DHT22;40184;53.362;5.216;2022-12-07T17:20:22;5.70;99.90
54272;DHT22;40184;53.362;5.216;2022-12-07T17:22:48;6.00;99.90
54272;DHT22;40184;53.362;5.216;2022-12-07T17:25:15;5.70;99.90
54272;DHT22;40184;53.362;5.216;2022-12-07T17:27:42;5.40;99.90
54272;DHT22;40184;53.362;5.216;2022-12-07T17:30:09;5.40;99.90
54272;DHT22;40184;53.362;5.216;2022-12-07T17:32:35;5.90;99.90
54272;DHT22;40184;53.362;5.216;2022-12-07T17:35:02;5.40;99.90
54272;DHT22;40184;53.362;5.216;2022-12-07T17:37:27;5.70;99.90
54272;DHT22;40184;53.362;5.216;2022-12-07T17:39:53;5.50;99.90
54272;DHT22;40184;53.362;5.216;2022-12-07T17:42:25;5.90;99.90
54272;DHT22;40184;53.362;5.216;2022-12-07T17:45:07;5.80;99.90
54272;DHT22;40184;53.362;5.216;2022-12-07T17:47:34;6.30;99.90
54272;DHT22;40184;53.362;5.216;2022-12-07T17:50:00;6.30;99.90
54272;DHT22;40184;53.362;5.216;2022-12-07T17:52:25;5.90;99.90
54272;DHT22;40184;53.362;5.216;2022-12-07T17:55:09;6.00;99.90
54272;DHT22;40184;53.362;5.216;2022-12-07T17:57:35;6.50;99.90
54272;DHT22;40184;53.362;5.216;2022-12-07T18:00:03;6.20;99.90
54272;DHT22;40184;53.362;5.216;2022-12-07T18:02:28;6.60;99.90
54272;DHT22;40184;53.362;5.216;2022-12-07T18:04:54;6.30;99.90
54272;DHT22;40184;53.362;5.216;2022-12-07T18:07:20;6.50;99.90
54272;DHT22;40184;53.362;5.216;2022-12-07T18:09:45;6.60;99.90